Arrecife, Spain

4:13 PM WET on December 04, 2016 (GMT +0000)
Lanzarote | | Change Station

Elev 69 ft 28.95 °N, 13.60 °W | Updated 13 minutes ago

Mostly Cloudy
Mostly Cloudy
75 °F
Feels Like 75 °F
N
14
Wind Variable Wind from West

Today
High -- | Low -- °F
--% Chance of Precip.
Yesterday
High -- | Low -- °F
Precip. -- in
Pressure 29.92 in
Visibility 6.2 miles
Clouds Few 2000 ft
Mostly Cloudy 4200 ft
Dew Point 61 °F
Humidity 61%
Rainfall 0.00 in
Snow Depth Not available.
7:32 AM 5:56 PM
Waxing Crescent, 23% visible
METAR GCRR 041600Z 28012KT 260V320 9999 FEW020 BKN042 24/16 Q1013
Pressure 29.92 in
Visibility 6.2 miles
Clouds Few 2000 ft
Mostly Cloudy 4200 ft
Dew Point 61 °F
Humidity 61%
Rainfall 0.00 in
Snow Depth Not available.
7:32 AM 5:56 PM
Waxing Crescent, 23% visible
METAR GCRR 041600Z 28012KT 260V320 9999 FEW020 BKN042 24/16 Q1013

10-Day Weather Forecast

×

Almanac

Astronomy

Dec. 04, 2016 Rise Set
Actual Time
Civil Twilight
Nautical Twilight
Astronomical Twilight
Moon
Length of Visible Light
Length of Day
Tomorrow will be .
, % of the Moon is Illuminated

Today's Extremes

Country Highs Country Lows

Community

WunderPhotos

Upload Photos

1,955,616 photos uploaded!

WunderBlog® & News

Nearby

Air Quality

  Air Quality AQ Index Pollutant
Not available.

Snow Depth

Station Depth Elevation

Earthquake Activity

City Distance Mag. Time & Date
Minimum magnitude displayed is 2.5.

Coastal Water Temperatures

Place Temperature

Stations

Nearby Weather Stations

Station Location Temp. Windchill Dew Point Humidity Wind Precip. Elev Updated Type